createdAt,value
2023-05-06T00:00:17.787Z,3.00
2023-05-06T00:00:50.453Z,3.20
2023-05-06T00:01:23.147Z,2.90
2023-05-06T00:01:55.794Z,3.00
2023-05-06T00:02:26.916Z,2.90
2023-05-06T00:02:59.790Z,3.10
2023-05-06T00:03:32.659Z,3.20
2023-05-06T00:03:59.074Z,3.30
2023-05-06T00:04:30.101Z,3.00
2023-05-06T00:05:02.762Z,2.90
2023-05-06T00:05:35.414Z,3.10
2023-05-06T00:06:08.076Z,2.90
2023-05-06T00:06:40.763Z,3.20
2023-05-06T00:07:13.452Z,3.10
2023-05-06T00:07:46.117Z,3.20
2023-05-06T00:08:18.783Z,3.10
2023-05-06T00:08:51.450Z,3.20
2023-05-06T00:09:24.140Z,3.10
2023-05-06T00:09:56.795Z,3.40
2023-05-06T00:10:29.497Z,3.20
2023-05-06T00:11:02.156Z,3.20
2023-05-06T00:11:34.818Z,3.10
2023-05-06T00:12:07.481Z,3.00
2023-05-06T00:12:40.185Z,3.30
2023-05-06T00:13:12.886Z,3.40
2023-05-06T00:13:45.599Z,3.40
2023-05-06T00:14:18.302Z,3.20
2023-05-06T00:14:50.975Z,3.10
2023-05-06T00:15:23.653Z,3.40
2023-05-06T00:15:56.344Z,3.30
2023-05-06T00:16:29.024Z,3.20
2023-05-06T00:17:01.670Z,3.20
2023-05-06T00:17:34.359Z,3.30
2023-05-06T00:18:07.173Z,3.10
2023-05-06T00:18:39.865Z,3.50
2023-05-06T00:19:12.585Z,3.50
2023-05-06T00:19:45.227Z,3.70
2023-05-06T00:20:17.919Z,3.20
2023-05-06T00:20:50.592Z,3.50
2023-05-06T00:21:23.240Z,3.50
2023-05-06T00:21:55.938Z,3.50
2023-05-06T00:22:28.623Z,3.70
2023-05-06T00:23:01.294Z,3.50
2023-05-06T00:23:33.961Z,3.60
2023-05-06T00:24:06.654Z,3.70
2023-05-06T00:24:39.308Z,3.70
2023-05-06T00:25:12.033Z,3.80
2023-05-06T00:25:44.701Z,3.40
2023-05-06T00:26:17.362Z,3.70
2023-05-06T00:26:50.028Z,3.70
2023-05-06T00:27:22.724Z,3.40
2023-05-06T00:27:53.821Z,3.80
2023-05-06T00:28:26.494Z,3.80
2023-05-06T00:28:59.199Z,3.60
2023-05-06T00:29:31.891Z,4.10
2023-05-06T00:30:04.545Z,3.70
2023-05-06T00:30:37.218Z,4.10
2023-05-06T00:31:09.899Z,4.00
2023-05-06T00:31:42.604Z,3.50
2023-05-06T00:32:15.289Z,4.00
2023-05-06T00:32:48.017Z,3.90
2023-05-06T00:33:20.725Z,3.90
2023-05-06T00:33:53.377Z,3.70
2023-05-06T00:34:26.064Z,4.00
2023-05-06T00:34:58.733Z,4.00
2023-05-06T00:35:31.409Z,4.10
2023-05-06T00:36:04.083Z,3.80
2023-05-06T00:36:36.740Z,4.00
2023-05-06T00:37:09.396Z,4.10
2023-05-06T00:37:42.067Z,4.30
2023-05-06T00:38:14.737Z,4.10
2023-05-06T00:38:47.423Z,4.00
2023-05-06T00:39:20.116Z,4.20
2023-05-06T00:39:52.758Z,4.20
2023-05-06T00:40:25.429Z,4.40
2023-05-06T00:40:58.093Z,4.30
2023-05-06T00:41:30.751Z,4.50
2023-05-06T00:42:03.432Z,4.10
2023-05-06T00:42:36.109Z,4.50
2023-05-06T00:43:08.765Z,4.40
2023-05-06T00:43:41.433Z,4.10
2023-05-06T00:44:14.115Z,4.60
2023-05-06T00:44:46.778Z,4.50
2023-05-06T00:45:19.448Z,4.60
2023-05-06T00:45:52.245Z,4.60
2023-05-06T00:46:24.986Z,4.40
2023-05-06T00:46:57.646Z,4.80
2023-05-06T00:47:30.326Z,4.30
2023-05-06T00:48:03.032Z,4.60
2023-05-06T00:48:35.708Z,4.90
2023-05-06T00:49:08.415Z,5.00
2023-05-06T00:49:41.084Z,4.90
2023-05-06T00:50:13.746Z,4.50
2023-05-06T00:50:46.429Z,5.10
2023-05-06T00:51:19.104Z,4.70
2023-05-06T00:51:51.768Z,4.60
2023-05-06T00:52:24.439Z,4.60
2023-05-06T00:52:57.104Z,5.00
2023-05-06T00:53:29.784Z,4.80
2023-05-06T00:54:02.450Z,4.80
2023-05-06T00:54:35.121Z,5.20
2023-05-06T00:55:07.988Z,4.80
2023-05-06T00:55:34.311Z,5.00
2023-05-06T00:56:06.972Z,4.90
2023-05-06T00:56:39.644Z,4.50
2023-05-06T00:57:12.321Z,5.10
2023-05-06T00:57:44.970Z,5.10
2023-05-06T00:58:17.639Z,4.80
2023-05-06T00:58:50.312Z,4.60
2023-05-06T00:59:21.421Z,4.90
2023-05-06T00:59:54.086Z,4.40
2023-05-06T01:00:26.745Z,5.10
2023-05-06T01:00:59.468Z,4.80
2023-05-06T01:01:32.178Z,5.20
2023-05-06T01:02:04.876Z,4.90
2023-05-06T01:02:46.497Z,4.70
2023-05-06T01:03:09.697Z,4.90
2023-05-06T01:03:36.080Z,4.90
2023-05-06T01:04:08.898Z,4.90
2023-05-06T01:04:41.640Z,5.00
2023-05-06T01:05:14.410Z,5.10
2023-05-06T01:05:47.104Z,5.20
2023-05-06T01:06:19.771Z,5.10
2023-05-06T01:06:52.457Z,4.70
2023-05-06T01:07:25.148Z,4.80
2023-05-06T01:07:57.825Z,4.60
2023-05-06T01:08:30.491Z,4.80
2023-05-06T01:09:03.162Z,5.10
2023-05-06T01:09:35.857Z,4.70
2023-05-06T01:10:08.546Z,5.00
2023-05-06T01:10:41.224Z,5.20
2023-05-06T01:11:15.701Z,5.20
2023-05-06T01:11:42.169Z,5.00
2023-05-06T01:12:14.834Z,5.10
2023-05-06T01:12:47.601Z,5.00
2023-05-06T01:13:20.359Z,4.90
2023-05-06T01:13:53.046Z,4.90
2023-05-06T01:14:25.722Z,4.70
2023-05-06T01:14:58.396Z,5.10
2023-05-06T01:15:31.055Z,4.90
2023-05-06T01:16:03.724Z,4.80
2023-05-06T01:16:36.477Z,5.20
2023-05-06T01:17:09.258Z,4.40
2023-05-06T01:17:42.001Z,4.70
2023-05-06T01:18:14.670Z,5.00
2023-05-06T01:18:47.342Z,4.70
2023-05-06T01:19:20.058Z,4.90
2023-05-06T01:19:52.710Z,4.90
2023-05-06T01:20:25.394Z,4.90
2023-05-06T01:20:58.041Z,4.80
2023-05-06T01:21:30.709Z,4.70
2023-05-06T01:22:03.379Z,4.80
2023-05-06T01:22:36.038Z,4.90
2023-05-06T01:23:08.709Z,4.60
2023-05-06T01:23:41.367Z,4.70
2023-05-06T01:24:14.051Z,4.60
2023-05-06T01:24:46.738Z,5.20
2023-05-06T01:25:19.403Z,5.00
2023-05-06T01:25:52.074Z,4.80
2023-05-06T01:26:24.742Z,4.60
2023-05-06T01:26:57.425Z,4.90
2023-05-06T01:27:30.101Z,4.40
2023-05-06T01:28:02.777Z,4.90
2023-05-06T01:28:35.428Z,4.70
2023-05-06T01:29:08.105Z,4.60
2023-05-06T01:29:40.794Z,5.00
2023-05-06T01:30:13.465Z,4.70
2023-05-06T01:30:46.150Z,5.10
2023-05-06T01:31:19.020Z,4.80
2023-05-06T01:31:51.778Z,5.20
2023-05-06T01:32:24.520Z,5.20
2023-05-06T01:32:57.221Z,5.50
2023-05-06T01:33:29.958Z,5.00
2023-05-06T01:34:02.607Z,4.80
2023-05-06T01:34:35.384Z,5.20
2023-05-06T01:35:08.356Z,4.40
2023-05-06T01:35:34.692Z,4.50
2023-05-06T01:36:07.360Z,4.80
2023-05-06T01:36:40.031Z,5.00
2023-05-06T01:37:12.705Z,4.90
2023-05-06T01:37:45.370Z,5.30
2023-05-06T01:38:18.023Z,4.60
2023-05-06T01:38:50.688Z,4.50
2023-05-06T01:39:23.365Z,4.70
2023-05-06T01:39:56.044Z,4.70
2023-05-06T01:40:28.708Z,5.30
2023-05-06T01:41:01.378Z,4.90
2023-05-06T01:41:34.045Z,4.80
2023-05-06T01:42:06.703Z,5.00
2023-05-06T01:42:39.408Z,5.20
2023-05-06T01:43:12.056Z,5.00
2023-05-06T01:43:44.730Z,5.00
2023-05-06T01:44:17.478Z,4.80
2023-05-06T01:44:50.133Z,4.70
2023-05-06T01:45:22.794Z,4.90
2023-05-06T01:45:55.482Z,5.00
2023-05-06T01:46:28.169Z,5.10
2023-05-06T01:47:00.856Z,5.00
2023-05-06T01:47:33.551Z,5.00
2023-05-06T01:48:06.242Z,5.00
2023-05-06T01:48:38.887Z,4.90
2023-05-06T01:49:11.597Z,5.00
2023-05-06T01:49:44.344Z,5.20
2023-05-06T01:50:16.978Z,4.30
2023-05-06T01:50:49.647Z,4.90
2023-05-06T01:51:22.316Z,5.10
2023-05-06T01:51:54.983Z,5.00
2023-05-06T01:52:27.656Z,4.90
2023-05-06T01:53:00.346Z,5.10
2023-05-06T01:53:33.005Z,4.60
2023-05-06T01:54:05.705Z,5.10
2023-05-06T01:54:38.450Z,4.40
2023-05-06T01:55:11.327Z,5.00
2023-05-06T01:55:37.624Z,4.70
2023-05-06T01:56:10.282Z,5.10
2023-05-06T01:56:42.956Z,4.50
2023-05-06T01:57:15.630Z,4.50
2023-05-06T01:57:48.308Z,4.40
2023-05-06T01:58:20.967Z,5.10
2023-05-06T01:58:53.649Z,4.80
2023-05-06T01:59:26.346Z,5.10
2023-05-06T01:59:59.006Z,5.00
2023-05-06T02:00:31.667Z,4.50
2023-05-06T02:01:04.345Z,5.00
2023-05-06T02:01:37.052Z,4.70
2023-05-06T02:02:09.843Z,5.20
2023-05-06T02:02:42.704Z,4.60
2023-05-06T02:03:15.594Z,4.80
2023-05-06T02:03:48.499Z,5.10
2023-05-06T02:04:21.266Z,4.90
2023-05-06T02:04:53.962Z,5.10
2023-05-06T02:05:26.612Z,4.80
2023-05-06T02:05:59.381Z,4.90
2023-05-06T02:06:32.078Z,5.00
2023-05-06T02:07:04.750Z,5.20
2023-05-06T02:07:37.403Z,4.90
2023-05-06T02:08:10.081Z,4.80
2023-05-06T02:08:42.742Z,5.10
2023-05-06T02:09:15.427Z,4.60
2023-05-06T02:09:48.096Z,4.60
2023-05-06T02:10:20.769Z,5.00
2023-05-06T02:10:53.434Z,5.00
2023-05-06T02:11:26.159Z,4.80
2023-05-06T02:11:58.814Z,4.90
2023-05-06T02:12:31.490Z,4.90
2023-05-06T02:13:04.190Z,5.10
2023-05-06T02:13:36.835Z,4.80
2023-05-06T02:14:09.526Z,5.10
2023-05-06T02:14:42.188Z,5.40
2023-05-06T02:15:14.857Z,5.00
2023-05-06T02:15:47.569Z,5.30
2023-05-06T02:16:20.243Z,5.50
2023-05-06T02:16:52.913Z,5.30
2023-05-06T02:17:25.596Z,5.20
2023-05-06T02:17:58.319Z,5.20
2023-05-06T02:18:30.949Z,5.00
2023-05-06T02:19:03.632Z,4.90
2023-05-06T02:19:36.311Z,4.70
2023-05-06T02:20:09.018Z,5.10
2023-05-06T02:20:41.674Z,5.10
2023-05-06T02:21:14.346Z,5.00
2023-05-06T02:21:47.022Z,4.90
2023-05-06T02:22:19.679Z,5.00
2023-05-06T02:22:52.356Z,5.00
2023-05-06T02:23:25.047Z,5.10
2023-05-06T02:23:57.716Z,4.80
2023-05-06T02:24:30.414Z,5.40
2023-05-06T02:25:03.082Z,5.60
2023-05-06T02:25:35.771Z,5.00
2023-05-06T02:26:08.437Z,5.00
2023-05-06T02:26:41.104Z,5.50
2023-05-06T02:27:13.774Z,5.30
2023-05-06T02:27:46.462Z,5.20
2023-05-06T02:28:19.135Z,5.10
2023-05-06T02:28:51.784Z,5.10
2023-05-06T02:29:24.468Z,5.10
2023-05-06T02:29:57.128Z,5.00
2023-05-06T02:30:29.803Z,5.30
2023-05-06T02:31:02.507Z,4.90
2023-05-06T02:31:35.224Z,4.90
2023-05-06T02:32:07.889Z,5.20
2023-05-06T02:32:40.576Z,5.10
2023-05-06T02:33:13.249Z,4.80
2023-05-06T02:33:45.914Z,4.90
2023-05-06T02:34:18.609Z,5.60
2023-05-06T02:34:51.277Z,5.40
2023-05-06T02:35:23.979Z,5.30
2023-05-06T02:35:56.868Z,5.00
2023-05-06T02:36:29.516Z,5.30
2023-05-06T02:37:02.295Z,5.40
2023-05-06T02:37:35.014Z,5.40
2023-05-06T02:38:07.692Z,5.10
2023-05-06T02:38:40.367Z,5.00
2023-05-06T02:39:13.057Z,4.60
2023-05-06T02:39:45.737Z,5.00
2023-05-06T02:40:18.406Z,5.30
2023-05-06T02:40:51.081Z,5.50
2023-05-06T02:41:23.755Z,5.00
2023-05-06T02:41:56.439Z,5.00
2023-05-06T02:42:29.160Z,5.00
2023-05-06T02:43:01.820Z,5.30
2023-05-06T02:43:34.473Z,5.00
2023-05-06T02:44:07.143Z,4.80
2023-05-06T02:44:39.821Z,5.20
2023-05-06T02:45:12.597Z,4.80
2023-05-06T02:45:45.274Z,5.40
2023-05-06T02:46:17.982Z,5.30
2023-05-06T02:46:50.742Z,5.40
2023-05-06T02:47:23.455Z,5.10
2023-05-06T02:47:56.130Z,5.50
2023-05-06T02:48:28.773Z,5.20
2023-05-06T02:49:01.454Z,5.50
2023-05-06T02:49:34.120Z,5.00
2023-05-06T02:50:06.782Z,5.20
2023-05-06T02:50:39.549Z,5.20
2023-05-06T02:51:12.200Z,5.60
2023-05-06T02:51:44.866Z,5.20
2023-05-06T02:52:17.545Z,5.20
2023-05-06T02:52:50.203Z,5.60
2023-05-06T02:53:22.883Z,5.60
2023-05-06T02:53:55.539Z,5.60
2023-05-06T02:54:28.228Z,5.80
2023-05-06T02:55:00.889Z,4.90
2023-05-06T02:55:33.573Z,5.00
2023-05-06T02:56:06.252Z,5.30
2023-05-06T02:56:38.933Z,5.40
2023-05-06T02:57:11.622Z,5.10
2023-05-06T02:57:44.269Z,5.30
2023-05-06T02:58:16.935Z,5.30
2023-05-06T02:58:49.607Z,5.50
2023-05-06T02:59:22.301Z,5.80
2023-05-06T02:59:54.974Z,5.40
2023-05-06T03:00:27.632Z,5.10
2023-05-06T03:01:00.319Z,5.00
2023-05-06T03:01:33.162Z,5.00
2023-05-06T03:02:06.005Z,5.20
2023-05-06T03:02:38.728Z,5.50
2023-05-06T03:03:11.416Z,5.50
2023-05-06T03:03:44.110Z,5.80
2023-05-06T03:04:16.816Z,5.10
2023-05-06T03:04:49.478Z,5.40
2023-05-06T03:05:22.163Z,5.40
2023-05-06T03:05:55.040Z,5.10
2023-05-06T03:06:27.686Z,5.50
2023-05-06T03:07:00.337Z,5.80
2023-05-06T03:07:33.011Z,5.70
2023-05-06T03:08:05.693Z,5.60
2023-05-06T03:08:38.344Z,5.20
2023-05-06T03:09:11.029Z,5.60
2023-05-06T03:09:43.711Z,5.80
2023-05-06T03:10:16.432Z,5.70
2023-05-06T03:10:49.070Z,5.30
2023-05-06T03:11:21.737Z,5.80
2023-05-06T03:11:54.448Z,5.70
2023-05-06T03:12:27.120Z,5.90
2023-05-06T03:12:59.799Z,5.60
2023-05-06T03:13:32.473Z,5.90
2023-05-06T03:14:05.164Z,5.60
2023-05-06T03:14:37.840Z,5.60
2023-05-06T03:15:10.736Z,5.80
2023-05-06T03:15:37.030Z,5.60
2023-05-06T03:16:09.747Z,5.60
2023-05-06T03:16:42.435Z,5.50
2023-05-06T03:17:15.126Z,6.20
2023-05-06T03:17:47.809Z,5.20
2023-05-06T03:18:20.456Z,5.50
2023-05-06T03:18:53.147Z,5.30
2023-05-06T03:19:25.821Z,5.10
2023-05-06T03:19:58.495Z,5.30
2023-05-06T03:20:31.154Z,5.30
2023-05-06T03:21:03.871Z,5.60
2023-05-06T03:21:36.548Z,5.70
2023-05-06T03:22:09.209Z,5.50
2023-05-06T03:22:41.864Z,5.40
2023-05-06T03:23:14.548Z,5.60
2023-05-06T03:23:47.212Z,5.50
2023-05-06T03:24:19.892Z,5.30
2023-05-06T03:24:52.567Z,5.00
2023-05-06T03:25:25.238Z,5.10
2023-05-06T03:25:57.915Z,5.40
2023-05-06T03:26:30.593Z,5.60
2023-05-06T03:27:03.260Z,5.60
2023-05-06T03:27:35.926Z,5.40
2023-05-06T03:28:08.582Z,5.70
2023-05-06T03:28:41.262Z,5.50
2023-05-06T03:29:13.945Z,5.90
2023-05-06T03:29:46.597Z,5.80
2023-05-06T03:30:19.275Z,5.80
2023-05-06T03:30:51.997Z,6.00
2023-05-06T03:31:24.694Z,6.00
2023-05-06T03:31:57.424Z,6.10
2023-05-06T03:32:30.113Z,5.20
2023-05-06T03:33:02.892Z,5.60
2023-05-06T03:33:35.541Z,5.50
2023-05-06T03:34:08.210Z,5.50
2023-05-06T03:34:40.931Z,5.60
2023-05-06T03:35:13.596Z,5.90
2023-05-06T03:35:46.260Z,5.60
2023-05-06T03:36:18.990Z,5.50
2023-05-06T03:36:51.643Z,5.50
2023-05-06T03:37:24.314Z,5.50
2023-05-06T03:37:56.998Z,5.60
2023-05-06T03:38:29.658Z,5.20
2023-05-06T03:39:02.332Z,5.90
2023-05-06T03:39:35.012Z,5.60
2023-05-06T03:40:07.677Z,5.70
2023-05-06T03:40:40.334Z,5.30
2023-05-06T03:41:11.427Z,5.80
2023-05-06T03:41:44.103Z,5.20
2023-05-06T03:42:16.769Z,5.70
2023-05-06T03:42:49.452Z,5.70
2023-05-06T03:43:22.109Z,5.70
2023-05-06T03:43:54.767Z,5.30
2023-05-06T03:44:27.445Z,5.70
2023-05-06T03:45:00.192Z,5.30
2023-05-06T03:45:32.861Z,5.70
2023-05-06T03:46:05.600Z,5.70
2023-05-06T03:46:38.449Z,5.50
2023-05-06T03:47:11.217Z,5.40
2023-05-06T03:47:43.891Z,5.20
2023-05-06T03:48:16.561Z,5.60
2023-05-06T03:48:49.246Z,5.80
2023-05-06T03:49:21.917Z,5.60
2023-05-06T03:49:54.587Z,6.20
2023-05-06T03:50:27.246Z,5.50
2023-05-06T03:50:59.912Z,5.10
2023-05-06T03:51:32.764Z,5.80
2023-05-06T03:52:05.413Z,5.60
2023-05-06T03:52:38.077Z,5.90
2023-05-06T03:53:10.740Z,5.50
2023-05-06T03:53:43.421Z,5.80
2023-05-06T03:54:16.122Z,5.80
2023-05-06T03:54:48.800Z,5.80
2023-05-06T03:55:21.455Z,5.60
2023-05-06T03:55:54.123Z,5.70
2023-05-06T03:56:26.798Z,5.40
2023-05-06T03:56:59.475Z,5.70
2023-05-06T03:57:32.138Z,5.80
2023-05-06T03:58:04.826Z,6.00
2023-05-06T03:58:37.482Z,5.90
2023-05-06T03:59:10.164Z,5.30
2023-05-06T03:59:42.849Z,5.40
2023-05-06T04:00:15.501Z,5.40
2023-05-06T04:00:48.167Z,5.90
2023-05-06T04:01:19.301Z,5.70
2023-05-06T04:01:51.956Z,5.50
2023-05-06T04:02:24.668Z,5.40
2023-05-06T04:02:57.441Z,5.50
2023-05-06T04:03:30.187Z,5.60
2023-05-06T04:04:02.857Z,6.10
2023-05-06T04:04:35.534Z,5.50
2023-05-06T04:05:08.413Z,5.30
2023-05-06T04:05:34.752Z,5.70
2023-05-06T04:06:07.415Z,5.40
2023-05-06T04:06:40.360Z,5.70
2023-05-06T04:07:12.992Z,5.80
2023-05-06T04:07:45.728Z,5.90
2023-05-06T04:08:18.389Z,6.00
2023-05-06T04:08:51.067Z,5.50
2023-05-06T04:09:23.753Z,6.10
2023-05-06T04:09:56.422Z,5.60
2023-05-06T04:10:29.124Z,5.50
2023-05-06T04:11:01.782Z,6.00
2023-05-06T04:11:34.466Z,6.20
2023-05-06T04:12:07.145Z,6.30
2023-05-06T04:12:39.827Z,6.00
2023-05-06T04:13:12.587Z,5.80
2023-05-06T04:13:45.275Z,6.00
2023-05-06T04:14:17.953Z,5.60
2023-05-06T04:14:50.625Z,5.40
2023-05-06T04:15:23.311Z,5.70
2023-05-06T04:15:56.010Z,6.30
2023-05-06T04:16:28.701Z,6.10
2023-05-06T04:17:01.351Z,5.70
2023-05-06T04:17:34.073Z,5.60
2023-05-06T04:18:06.755Z,5.20
2023-05-06T04:18:39.404Z,5.90
2023-05-06T04:19:12.096Z,6.00
2023-05-06T04:19:44.767Z,5.90
2023-05-06T04:20:17.428Z,6.00
2023-05-06T04:20:50.113Z,6.00
2023-05-06T04:21:22.770Z,5.80
2023-05-06T04:21:55.532Z,6.00
2023-05-06T04:22:28.157Z,5.60
2023-05-06T04:23:00.823Z,5.30
2023-05-06T04:23:33.484Z,5.30
2023-05-06T04:24:06.159Z,5.50
2023-05-06T04:24:38.851Z,5.60
2023-05-06T04:25:11.723Z,5.50
2023-05-06T04:25:38.060Z,5.90
2023-05-06T04:26:10.743Z,5.90
2023-05-06T04:26:43.399Z,5.90
2023-05-06T04:27:16.080Z,5.80
2023-05-06T04:27:48.736Z,5.70
2023-05-06T04:28:21.406Z,5.60
2023-05-06T04:28:54.072Z,5.50
2023-05-06T04:29:26.763Z,5.30
2023-05-06T04:29:59.438Z,5.50
2023-05-06T04:30:32.130Z,5.60
2023-05-06T04:31:04.790Z,5.40
2023-05-06T04:31:37.510Z,5.80
2023-05-06T04:32:10.277Z,5.10
2023-05-06T04:32:42.972Z,5.40
2023-05-06T04:33:15.622Z,5.00
2023-05-06T04:33:42.251Z,5.50
2023-05-06T04:34:14.919Z,5.70
2023-05-06T04:34:47.580Z,5.70
2023-05-06T04:35:20.270Z,5.60
2023-05-06T04:35:52.930Z,5.30
2023-05-06T04:36:25.600Z,5.50
2023-05-06T04:36:58.291Z,5.30
2023-05-06T04:37:30.936Z,5.80
2023-05-06T04:38:03.607Z,5.80
2023-05-06T04:38:36.267Z,6.10
2023-05-06T04:39:09.057Z,5.40
2023-05-06T04:39:41.701Z,5.70
2023-05-06T04:40:14.383Z,5.90
2023-05-06T04:40:47.041Z,5.60
2023-05-06T04:41:19.735Z,5.70
2023-05-06T04:41:52.403Z,5.60
2023-05-06T04:42:25.091Z,5.60
2023-05-06T04:42:57.735Z,5.30
2023-05-06T04:43:30.422Z,5.40
2023-05-06T04:44:03.081Z,5.50
2023-05-06T04:44:35.812Z,5.80
2023-05-06T04:45:08.776Z,5.90
2023-05-06T04:45:35.165Z,5.70
2023-05-06T04:46:07.837Z,5.90
2023-05-06T04:46:40.526Z,5.90
2023-05-06T04:47:13.201Z,5.80
2023-05-06T04:47:45.937Z,5.80
2023-05-06T04:48:18.630Z,5.90
2023-05-06T04:48:51.303Z,6.00
2023-05-06T04:49:23.988Z,6.20
2023-05-06T04:49:56.659Z,5.60
2023-05-06T04:50:29.334Z,5.70
2023-05-06T04:51:01.988Z,5.90
2023-05-06T04:51:34.671Z,5.80
2023-05-06T04:52:07.425Z,5.80
2023-05-06T04:52:40.061Z,5.60
2023-05-06T04:53:12.738Z,5.30
2023-05-06T04:53:43.836Z,5.60
2023-05-06T04:54:16.573Z,5.50
2023-05-06T04:54:49.235Z,5.10
2023-05-06T04:55:21.927Z,5.60
2023-05-06T04:55:54.589Z,5.40
2023-05-06T04:56:27.318Z,5.60
2023-05-06T04:57:00.009Z,5.60
2023-05-06T04:57:32.710Z,5.50
2023-05-06T04:58:05.380Z,6.00
2023-05-06T04:58:38.056Z,5.90
2023-05-06T04:59:09.155Z,6.40
2023-05-06T04:59:41.813Z,5.80
2023-05-06T05:00:14.504Z,5.70
2023-05-06T05:00:47.169Z,6.30
2023-05-06T05:01:20.112Z,5.90
2023-05-06T05:01:51.204Z,6.20
2023-05-06T05:02:23.981Z,6.50
2023-05-06T05:02:56.814Z,6.00
2023-05-06T05:03:29.555Z,6.00
2023-05-06T05:04:02.316Z,6.90
2023-05-06T05:04:34.997Z,7.00
2023-05-06T05:05:07.781Z,6.70
2023-05-06T05:05:40.489Z,6.50
2023-05-06T05:06:13.137Z,5.70
2023-05-06T05:06:45.823Z,6.20
2023-05-06T05:07:18.586Z,6.00
2023-05-06T05:07:51.209Z,6.10
2023-05-06T05:08:23.906Z,6.40
2023-05-06T05:08:57.082Z,5.60
2023-05-06T05:09:23.287Z,6.10
2023-05-06T05:09:54.369Z,5.60
2023-05-06T05:10:27.039Z,6.10
2023-05-06T05:10:59.703Z,6.20
2023-05-06T05:11:32.372Z,5.80
2023-05-06T05:12:05.042Z,6.10
2023-05-06T05:12:37.731Z,6.20
2023-05-06T05:13:10.425Z,6.20
2023-05-06T05:13:43.087Z,6.20
2023-05-06T05:14:15.785Z,6.10
2023-05-06T05:14:48.445Z,5.60
2023-05-06T05:15:21.116Z,5.80
2023-05-06T05:15:53.782Z,5.80
2023-05-06T05:16:26.518Z,5.50
2023-05-06T05:16:59.231Z,6.10
2023-05-06T05:17:32.006Z,5.60
2023-05-06T05:18:04.740Z,5.50
2023-05-06T05:18:37.421Z,5.80
2023-05-06T05:19:10.109Z,6.00
2023-05-06T05:19:42.777Z,6.10
2023-05-06T05:20:15.448Z,6.10
2023-05-06T05:20:48.120Z,5.90
2023-05-06T05:21:20.785Z,5.80
2023-05-06T05:21:53.452Z,5.90
2023-05-06T05:22:26.220Z,6.20
2023-05-06T05:22:58.857Z,6.10
2023-05-06T05:23:31.538Z,5.70
2023-05-06T05:24:04.215Z,5.90
2023-05-06T05:24:36.881Z,6.10
2023-05-06T05:25:09.846Z,5.90
2023-05-06T05:25:36.202Z,5.80
2023-05-06T05:26:08.904Z,6.20
2023-05-06T05:26:41.622Z,6.40
2023-05-06T05:27:14.260Z,6.20
2023-05-06T05:27:46.935Z,5.90
2023-05-06T05:28:19.614Z,6.00
2023-05-06T05:28:52.287Z,6.10
2023-05-06T05:29:24.964Z,5.70
2023-05-06T05:29:57.650Z,5.80
2023-05-06T05:30:30.304Z,6.30
2023-05-06T05:31:02.972Z,5.80
2023-05-06T05:31:35.666Z,6.10
2023-05-06T05:32:08.332Z,6.00
2023-05-06T05:32:41.085Z,6.00
2023-05-06T05:33:13.945Z,5.70
2023-05-06T05:33:46.760Z,6.20
2023-05-06T05:34:19.437Z,5.60
2023-05-06T05:34:52.098Z,5.40
2023-05-06T05:35:24.756Z,6.00
2023-05-06T05:35:57.438Z,6.20
2023-05-06T05:36:30.099Z,6.20
2023-05-06T05:37:02.788Z,6.10
2023-05-06T05:37:35.567Z,5.60
2023-05-06T05:38:08.201Z,6.00
2023-05-06T05:38:40.864Z,5.70
2023-05-06T05:39:13.549Z,6.00
2023-05-06T05:39:46.234Z,6.50
2023-05-06T05:40:18.882Z,6.20
2023-05-06T05:40:51.559Z,6.40
2023-05-06T05:41:24.230Z,6.10
2023-05-06T05:41:56.914Z,6.30
2023-05-06T05:42:29.584Z,6.80
2023-05-06T05:43:02.244Z,6.60
2023-05-06T05:43:34.923Z,6.50
2023-05-06T05:44:07.606Z,6.00
2023-05-06T05:44:40.289Z,5.50
2023-05-06T05:45:12.969Z,5.80
2023-05-06T05:45:45.650Z,6.20
2023-05-06T05:46:18.337Z,5.80
2023-05-06T05:46:51.094Z,6.10
2023-05-06T05:47:23.836Z,6.30
2023-05-06T05:47:54.872Z,6.00
2023-05-06T05:48:27.532Z,5.90
2023-05-06T05:49:00.197Z,5.70
2023-05-06T05:49:32.874Z,6.00
2023-05-06T05:50:05.553Z,5.80
2023-05-06T05:50:38.208Z,6.20
2023-05-06T05:51:10.881Z,6.10
2023-05-06T05:51:43.645Z,6.00
2023-05-06T05:52:16.296Z,6.40
2023-05-06T05:52:48.978Z,6.10
2023-05-06T05:53:21.639Z,6.30
2023-05-06T05:53:54.336Z,6.20
2023-05-06T05:54:27.046Z,6.30
2023-05-06T05:54:59.732Z,6.20
2023-05-06T05:55:32.396Z,6.30
2023-05-06T05:56:05.060Z,5.70
2023-05-06T05:56:37.733Z,6.30
2023-05-06T05:57:10.394Z,6.40
2023-05-06T05:57:43.044Z,6.10
2023-05-06T05:58:15.720Z,6.30
2023-05-06T05:58:48.382Z,6.40
2023-05-06T05:59:21.055Z,6.50
2023-05-06T05:59:53.745Z,6.30
2023-05-06T06:00:26.414Z,5.80
2023-05-06T06:00:59.120Z,6.70
2023-05-06T06:01:31.779Z,6.70
2023-05-06T06:02:04.447Z,6.60
2023-05-06T06:02:37.211Z,6.30
2023-05-06T06:03:10.022Z,6.30
2023-05-06T06:03:42.928Z,6.10
2023-05-06T06:04:15.688Z,6.30
2023-05-06T06:04:48.356Z,5.80
2023-05-06T06:05:21.023Z,6.30
2023-05-06T06:05:53.690Z,6.10
2023-05-06T06:06:26.332Z,6.00
2023-05-06T06:06:59.000Z,6.20
2023-05-06T06:07:31.747Z,5.80
2023-05-06T06:08:04.513Z,6.20
2023-05-06T06:08:37.140Z,6.10
2023-05-06T06:09:09.827Z,6.60
2023-05-06T06:09:42.496Z,6.10
2023-05-06T06:10:15.179Z,6.10
2023-05-06T06:10:47.825Z,6.80
2023-05-06T06:11:20.494Z,6.40
2023-05-06T06:11:53.177Z,6.10
2023-05-06T06:12:25.856Z,6.30
2023-05-06T06:12:58.575Z,6.40
2023-05-06T06:13:31.316Z,6.20
2023-05-06T06:14:04.092Z,5.80
2023-05-06T06:14:36.785Z,6.10
2023-05-06T06:15:09.640Z,5.60
2023-05-06T06:15:42.379Z,6.00
2023-05-06T06:16:15.057Z,5.50
2023-05-06T06:16:47.728Z,6.00
2023-05-06T06:17:20.360Z,5.90
2023-05-06T06:17:53.056Z,5.50
2023-05-06T06:18:25.764Z,5.80
2023-05-06T06:18:58.444Z,6.00
2023-05-06T06:19:31.132Z,5.80
2023-05-06T06:20:03.809Z,5.60
2023-05-06T06:20:36.490Z,5.90
2023-05-06T06:21:09.158Z,5.70
2023-05-06T06:21:41.862Z,6.00
2023-05-06T06:22:14.530Z,5.20
2023-05-06T06:22:47.205Z,5.70
2023-05-06T06:23:19.963Z,6.00
2023-05-06T06:23:52.597Z,6.40
2023-05-06T06:24:25.293Z,6.10
2023-05-06T06:24:57.978Z,6.50
2023-05-06T06:25:30.659Z,6.00
2023-05-06T06:26:03.312Z,6.10
2023-05-06T06:26:36.002Z,6.30
2023-05-06T06:27:08.672Z,6.70
2023-05-06T06:27:41.320Z,6.30
2023-05-06T06:28:13.981Z,6.00
2023-05-06T06:28:46.652Z,6.50
2023-05-06T06:29:19.335Z,6.30
2023-05-06T06:29:52.008Z,6.60
2023-05-06T06:30:24.661Z,7.00
2023-05-06T06:30:57.334Z,6.80
2023-05-06T06:31:30.141Z,6.70
2023-05-06T06:32:02.892Z,6.60
2023-05-06T06:32:35.576Z,6.50
2023-05-06T06:33:08.297Z,6.60
2023-05-06T06:33:40.945Z,6.90
2023-05-06T06:34:13.615Z,6.60
2023-05-06T06:34:46.285Z,6.00
2023-05-06T06:35:18.946Z,5.90
2023-05-06T06:35:51.617Z,6.30
2023-05-06T06:36:24.276Z,5.90
2023-05-06T06:36:56.960Z,6.30
2023-05-06T06:37:29.651Z,6.20
2023-05-06T06:38:02.316Z,6.40
2023-05-06T06:38:35.091Z,5.90
2023-05-06T06:39:07.720Z,6.10
2023-05-06T06:39:40.405Z,6.20
2023-05-06T06:40:13.084Z,5.80
2023-05-06T06:40:45.777Z,6.70
2023-05-06T06:41:18.430Z,6.40
2023-05-06T06:41:51.089Z,5.90
2023-05-06T06:42:23.757Z,6.70
2023-05-06T06:42:56.431Z,6.70
2023-05-06T06:43:29.124Z,6.80
2023-05-06T06:44:01.785Z,7.10
2023-05-06T06:44:34.478Z,7.30
2023-05-06T06:45:08.156Z,6.90
2023-05-06T06:45:34.499Z,7.60
2023-05-06T06:46:07.207Z,6.90
2023-05-06T06:46:39.871Z,7.30
2023-05-06T06:47:12.518Z,6.70
2023-05-06T06:47:45.236Z,6.40
2023-05-06T06:48:17.916Z,6.70
2023-05-06T06:48:50.596Z,6.90
2023-05-06T06:49:23.271Z,6.30
2023-05-06T06:49:55.924Z,6.70
2023-05-06T06:50:28.612Z,6.60
2023-05-06T06:51:01.288Z,6.50
2023-05-06T06:51:33.937Z,6.40
2023-05-06T06:52:06.588Z,6.20
2023-05-06T06:52:39.263Z,6.70
2023-05-06T06:53:11.936Z,6.30
2023-05-06T06:53:44.689Z,7.00
2023-05-06T06:54:17.327Z,6.90
2023-05-06T06:54:50.023Z,7.30
2023-05-06T06:55:22.697Z,6.20
2023-05-06T06:55:55.385Z,6.30
2023-05-06T06:56:28.074Z,6.10
2023-05-06T06:57:00.751Z,6.20
2023-05-06T06:57:33.438Z,6.50
2023-05-06T06:58:06.099Z,6.40
2023-05-06T06:58:38.757Z,6.60
2023-05-06T06:59:11.464Z,6.60
2023-05-06T06:59:44.115Z,6.50
2023-05-06T07:00:16.816Z,6.70
2023-05-06T07:00:49.529Z,6.20
2023-05-06T07:01:22.234Z,6.50
2023-05-06T07:01:54.891Z,6.10
2023-05-06T07:02:27.577Z,5.80
2023-05-06T07:03:00.278Z,6.10
2023-05-06T07:03:32.994Z,6.90
2023-05-06T07:04:07.103Z,6.70
2023-05-06T07:04:33.577Z,6.80
2023-05-06T07:05:06.271Z,6.20
2023-05-06T07:05:38.910Z,6.40
2023-05-06T07:06:11.577Z,6.90
2023-05-06T07:06:44.326Z,6.60
2023-05-06T07:07:17.000Z,6.70
2023-05-06T07:07:49.702Z,6.90
2023-05-06T07:08:22.379Z,6.70
2023-05-06T07:08:55.218Z,6.50
2023-05-06T07:09:27.891Z,6.80
2023-05-06T07:10:00.570Z,6.90
2023-05-06T07:10:33.262Z,6.60
2023-05-06T07:11:05.925Z,6.40
2023-05-06T07:11:38.602Z,6.90
2023-05-06T07:12:11.259Z,6.30
2023-05-06T07:12:42.405Z,6.70
2023-05-06T07:13:15.173Z,6.70